sensor_id;sensor_type;location;lat;lon;timestamp;pressure;altitude;pressure_sealevel;temperature;humidity
59443;BME280;45247;47.466;19.004;2022-09-12T00:01:19;99700.59;;;13.52;100.00
59443;BME280;45247;47.466;19.004;2022-09-12T00:03:51;99700.84;;;13.49;100.00
59443;BME280;45247;47.466;19.004;2022-09-12T00:06:21;99695.97;;;13.43;100.00
59443;BME280;45247;47.466;19.004;2022-09-12T00:08:52;99693.53;;;13.40;100.00
59443;BME280;45247;47.466;19.004;2022-09-12T00:11:22;99687.06;;;13.44;100.00
59443;BME280;45247;47.466;19.004;2022-09-12T00:13:50;99685.78;;;13.50;100.00
59443;BME280;45247;47.466;19.004;2022-09-12T00:16:21;99691.56;;;13.55;100.00
59443;BME280;45247;47.466;19.004;2022-09-12T00:18:51;99688.06;;;13.55;100.00
59443;BME280;45247;47.466;19.004;2022-09-12T00:21:20;99683.53;;;13.68;100.00
59443;BME280;45247;47.466;19.004;2022-09-12T00:23:49;99678.59;;;13.74;100.00
59443;BME280;45247;47.466;19.004;2022-09-12T00:26:18;99686.47;;;13.76;100.00
59443;BME280;45247;47.466;19.004;2022-09-12T00:28:49;99694.19;;;13.79;100.00
59443;BME280;45247;47.466;19.004;2022-09-12T00:31:20;99686.94;;;13.81;100.00
59443;BME280;45247;47.466;19.004;2022-09-12T00:33:50;99688.75;;;13.81;100.00
59443;BME280;45247;47.466;19.004;2022-09-12T00:36:20;99692.97;;;13.83;100.00
59443;BME280;45247;47.466;19.004;2022-09-12T00:38:51;99688.75;;;13.81;100.00
59443;BME280;45247;47.466;19.004;2022-09-12T00:41:22;99693.56;;;13.75;100.00
59443;BME280;45247;47.466;19.004;2022-09-12T00:43:53;99701.59;;;13.63;100.00
59443;BME280;45247;47.466;19.004;2022-09-12T00:46:28;99697.03;;;13.65;100.00
59443;BME280;45247;47.466;19.004;2022-09-12T00:49:00;99692.47;;;13.67;100.00
59443;BME280;45247;47.466;19.004;2022-09-12T00:51:32;99695.22;;;13.65;100.00
59443;BME280;45247;47.466;19.004;2022-09-12T00:54:05;99696.75;;;13.57;100.00
59443;BME280;45247;47.466;19.004;2022-09-12T00:56:36;99690.38;;;13.59;100.00
59443;BME280;45247;47.466;19.004;2022-09-12T00:59:10;99691.09;;;13.61;100.00
59443;BME280;45247;47.466;19.004;2022-09-12T01:01:42;99689.53;;;13.59;100.00
59443;BME280;45247;47.466;19.004;2022-09-12T01:04:11;99681.47;;;13.60;100.00
59443;BME280;45247;47.466;19.004;2022-09-12T01:06:41;99681.59;;;13.59;100.00
59443;BME280;45247;47.466;19.004;2022-09-12T01:09:14;99678.94;;;13.59;100.00
59443;BME280;45247;47.466;19.004;2022-09-12T01:11:44;99678.81;;;13.60;100.00
59443;BME280;45247;47.466;19.004;2022-09-12T01:14:16;99678.94;;;13.59;100.00
59443;BME280;45247;47.466;19.004;2022-09-12T01:16:45;99670.41;;;13.66;100.00
59443;BME280;45247;47.466;19.004;2022-09-12T01:19:30;99683.03;;;13.63;100.00
59443;BME280;45247;47.466;19.004;2022-09-12T01:22:14;99678.94;;;13.70;100.00
59443;BME280;45247;47.466;19.004;2022-09-12T01:24:57;99672.44;;;13.63;100.00
59443;BME280;45247;47.466;19.004;2022-09-12T01:27:49;99684.84;;;13.62;100.00
59443;BME280;45247;47.466;19.004;2022-09-12T01:30:33;99680.63;;;13.60;100.00
59443;BME280;45247;47.466;19.004;2022-09-12T01:36:30;99675.31;;;13.60;100.00
59443;BME280;45247;47.466;19.004;2022-09-12T01:39:03;99670.72;;;13.62;100.00
59443;BME280;45247;47.466;19.004;2022-09-12T01:41:41;99677.00;;;13.61;100.00
59443;BME280;45247;47.466;19.004;2022-09-12T01:44:22;99663.03;;;13.59;100.00
59443;BME280;45247;47.466;19.004;2022-09-12T01:47:02;99678.59;;;13.74;100.00
59443;BME280;45247;47.466;19.004;2022-09-12T01:49:39;99682.84;;;13.77;100.00
59443;BME280;45247;47.466;19.004;2022-09-12T01:52:16;99676.81;;;13.86;100.00
59443;BME280;45247;47.466;19.004;2022-09-12T01:54:48;99671.03;;;13.81;100.00
59443;BME280;45247;47.466;19.004;2022-09-12T01:57:21;99671.28;;;13.89;100.00
59443;BME280;45247;47.466;19.004;2022-09-12T01:59:55;99663.81;;;13.94;100.00
59443;BME280;45247;47.466;19.004;2022-09-12T02:02:31;99677.81;;;13.96;100.00
59443;BME280;45247;47.466;19.004;2022-09-12T02:05:05;99665.03;;;14.01;100.00
59443;BME280;45247;47.466;19.004;2022-09-12T02:07:38;99673.00;;;14.13;100.00
59443;BME280;45247;47.466;19.004;2022-09-12T02:10:11;99679.50;;;14.09;100.00
59443;BME280;45247;47.466;19.004;2022-09-12T02:12:45;99679.63;;;14.07;100.00
59443;BME280;45247;47.466;19.004;2022-09-12T02:15:18;99681.66;;;14.03;100.00
59443;BME280;45247;47.466;19.004;2022-09-12T02:17:50;99677.81;;;13.96;100.00
59443;BME280;45247;47.466;19.004;2022-09-12T02:20:21;99682.13;;;13.86;100.00
59443;BME280;45247;47.466;19.004;2022-09-12T02:23:13;99688.50;;;13.72;100.00
59443;BME280;45247;47.466;19.004;2022-09-12T02:25:45;99696.03;;;13.55;100.00
59443;BME280;45247;47.466;19.004;2022-09-12T02:28:18;99690.41;;;13.35;100.00
59443;BME280;45247;47.466;19.004;2022-09-12T02:30:55;99689.09;;;13.17;100.00
59443;BME280;45247;47.466;19.004;2022-09-12T02:33:34;99687.78;;;12.98;100.00
59443;BME280;45247;47.466;19.004;2022-09-12T02:36:11;99694.25;;;12.94;100.00
59443;BME280;45247;47.466;19.004;2022-09-12T02:38:47;99689.69;;;12.96;100.00
59443;BME280;45247;47.466;19.004;2022-09-12T02:41:17;99689.59;;;12.98;100.00
59443;BME280;45247;47.466;19.004;2022-09-12T02:43:47;99676.69;;;12.93;100.00
59443;BME280;45247;47.466;19.004;2022-09-12T02:46:20;99691.97;;;12.90;100.00
59443;BME280;45247;47.466;19.004;2022-09-12T02:48:51;99687.72;;;12.87;100.00
59443;BME280;45247;47.466;19.004;2022-09-12T02:51:19;99698.53;;;12.84;100.00
59443;BME280;45247;47.466;19.004;2022-09-12T02:53:49;99692.00;;;12.77;100.00
59443;BME280;45247;47.466;19.004;2022-09-12T02:56:22;99693.25;;;12.71;100.00
59443;BME280;45247;47.466;19.004;2022-09-12T02:58:52;99684.38;;;12.72;100.00
59443;BME280;45247;47.466;19.004;2022-09-12T03:01:31;99694.31;;;12.82;100.00
59443;BME280;45247;47.466;19.004;2022-09-12T03:04:15;99695.44;;;12.90;100.00
59443;BME280;45247;47.466;19.004;2022-09-12T03:06:51;99702.25;;;13.06;100.00
59443;BME280;45247;47.466;19.004;2022-09-12T03:09:32;99694.88;;;13.22;100.00
59443;BME280;45247;47.466;19.004;2022-09-12T03:12:09;99700.63;;;13.28;100.00
59443;BME280;45247;47.466;19.004;2022-09-12T03:14:53;99692.06;;;13.25;100.00
59443;BME280;45247;47.466;19.004;2022-09-12T03:17:35;99703.91;;;13.32;100.00
59443;BME280;45247;47.466;19.004;2022-09-12T03:20:10;99701.47;;;13.29;100.00
59443;BME280;45247;47.466;19.004;2022-09-12T03:22:44;99713.25;;;13.25;100.00
59443;BME280;45247;47.466;19.004;2022-09-12T03:25:20;99717.50;;;13.15;100.00
59443;BME280;45247;47.466;19.004;2022-09-12T03:27:53;99715.63;;;13.04;100.00
59443;BME280;45247;47.466;19.004;2022-09-12T03:30:24;99703.91;;;12.95;100.00
59443;BME280;45247;47.466;19.004;2022-09-12T03:32:54;99712.91;;;12.93;100.00
59443;BME280;45247;47.466;19.004;2022-09-12T03:35:24;99717.13;;;12.95;100.00
59443;BME280;45247;47.466;19.004;2022-09-12T03:37:52;99715.78;;;13.14;100.00
59443;BME280;45247;47.466;19.004;2022-09-12T03:40:20;99705.81;;;13.17;100.00
59443;BME280;45247;47.466;19.004;2022-09-12T03:42:48;99709.09;;;13.21;100.00
59443;BME280;45247;47.466;19.004;2022-09-12T03:45:17;99699.03;;;13.26;100.00
59443;BME280;45247;47.466;19.004;2022-09-12T03:47:45;99699.66;;;13.30;100.00
59443;BME280;45247;47.466;19.004;2022-09-12T03:50:13;99711.84;;;13.32;100.00
59443;BME280;45247;47.466;19.004;2022-09-12T03:52:42;99727.00;;;13.30;100.00
59443;BME280;45247;47.466;19.004;2022-09-12T03:55:11;99715.56;;;13.30;100.00
59443;BME280;45247;47.466;19.004;2022-09-12T03:57:39;99712.78;;;13.31;100.00
59443;BME280;45247;47.466;19.004;2022-09-12T04:00:08;99711.84;;;13.32;100.00
59443;BME280;45247;47.466;19.004;2022-09-12T04:02:36;99710.97;;;13.32;100.00
59443;BME280;45247;47.466;19.004;2022-09-12T04:05:05;99713.81;;;13.41;100.00
59443;BME280;45247;47.466;19.004;2022-09-12T04:07:33;99716.75;;;13.49;100.00
59443;BME280;45247;47.466;19.004;2022-09-12T04:10:04;99701.56;;;13.51;100.00
59443;BME280;45247;47.466;19.004;2022-09-12T04:12:32;99702.19;;;13.55;100.00
59443;BME280;45247;47.466;19.004;2022-09-12T04:15:04;99711.03;;;13.67;100.00
59443;BME280;45247;47.466;19.004;2022-09-12T04:17:33;99704.97;;;13.65;100.00
59443;BME280;45247;47.466;19.004;2022-09-12T04:20:01;99711.13;;;13.65;100.00
59443;BME280;45247;47.466;19.004;2022-09-12T04:22:30;99704.53;;;13.71;100.00
59443;BME280;45247;47.466;19.004;2022-09-12T04:24:59;99705.50;;;13.81;100.00
59443;BME280;45247;47.466;19.004;2022-09-12T04:27:28;99692.50;;;13.89;100.00
59443;BME280;45247;47.466;19.004;2022-09-12T04:29:56;99703.84;;;13.91;100.00
59443;BME280;45247;47.466;19.004;2022-09-12T04:32:25;99710.59;;;13.95;100.00
59443;BME280;45247;47.466;19.004;2022-09-12T04:34:53;99705.56;;;14.03;100.00
59443;BME280;45247;47.466;19.004;2022-09-12T04:37:21;99706.16;;;14.07;100.00
59443;BME280;45247;47.466;19.004;2022-09-12T04:39:50;99704.84;;;14.13;100.00
59443;BME280;45247;47.466;19.004;2022-09-12T04:42:23;99701.50;;;14.22;100.00
59443;BME280;45247;47.466;19.004;2022-09-12T04:44:53;99708.22;;;14.26;100.00
59443;BME280;45247;47.466;19.004;2022-09-12T04:47:21;99707.66;;;14.78;100.00
59443;BME280;45247;47.466;19.004;2022-09-12T04:49:49;99714.31;;;15.60;100.00
59443;BME280;45247;47.466;19.004;2022-09-12T04:52:18;99723.88;;;16.46;100.00
59443;BME280;45247;47.466;19.004;2022-09-12T04:54:46;99698.31;;;17.24;100.00
59443;BME280;45247;47.466;19.004;2022-09-12T04:57:14;99707.84;;;17.56;100.00
59443;BME280;45247;47.466;19.004;2022-09-12T04:59:42;99713.47;;;17.72;100.00
59443;BME280;45247;47.466;19.004;2022-09-12T05:02:12;99711.84;;;17.90;100.00
59443;BME280;45247;47.466;19.004;2022-09-12T05:04:40;99711.78;;;18.10;100.00
59443;BME280;45247;47.466;19.004;2022-09-12T05:07:08;99717.81;;;18.59;100.00
59443;BME280;45247;47.466;19.004;2022-09-12T05:09:37;99727.66;;;18.95;100.00
59443;BME280;45247;47.466;19.004;2022-09-12T05:12:05;99712.34;;;19.33;100.00
59443;BME280;45247;47.466;19.004;2022-09-12T05:14:34;99721.72;;;18.74;100.00
59443;BME280;45247;47.466;19.004;2022-09-12T05:17:03;99719.22;;;19.18;100.00
59443;BME280;45247;47.466;19.004;2022-09-12T05:19:33;99733.63;;;18.33;100.00
59443;BME280;45247;47.466;19.004;2022-09-12T05:22:01;99726.53;;;18.61;100.00
59443;BME280;45247;47.466;19.004;2022-09-12T05:24:30;99764.38;;;17.11;100.00
59443;BME280;45247;47.466;19.004;2022-09-12T05:26:58;99756.25;;;17.12;100.00
59443;BME280;45247;47.466;19.004;2022-09-12T05:29:26;99752.00;;;16.69;100.00
59443;BME280;45247;47.466;19.004;2022-09-12T05:31:55;99757.56;;;16.57;100.00
59443;BME280;45247;47.466;19.004;2022-09-12T05:34:23;99752.19;;;16.26;100.00
59443;BME280;45247;47.466;19.004;2022-09-12T05:36:54;99755.06;;;16.13;100.00
59443;BME280;45247;47.466;19.004;2022-09-12T05:39:22;99751.84;;;15.89;100.00
59443;BME280;45247;47.466;19.004;2022-09-12T05:41:51;99750.69;;;15.70;100.00
59443;BME280;45247;47.466;19.004;2022-09-12T05:44:20;99758.88;;;15.46;100.00
59443;BME280;45247;47.466;19.004;2022-09-12T05:46:48;99761.13;;;15.94;100.00
59443;BME280;45247;47.466;19.004;2022-09-12T05:49:17;99753.28;;;17.06;100.00
59443;BME280;45247;47.466;19.004;2022-09-12T05:51:45;99759.69;;;17.63;100.00
59443;BME280;45247;47.466;19.004;2022-09-12T05:54:17;99762.91;;;18.15;100.00
59443;BME280;45247;47.466;19.004;2022-09-12T05:56:46;99747.72;;;18.35;100.00
59443;BME280;45247;47.466;19.004;2022-09-12T05:59:16;99758.66;;;19.16;100.00
59443;BME280;45247;47.466;19.004;2022-09-12T06:01:45;99758.00;;;19.32;100.00
59443;BME280;45247;47.466;19.004;2022-09-12T06:04:14;99760.53;;;19.06;100.00
59443;BME280;45247;47.466;19.004;2022-09-12T06:06:44;99762.50;;;19.04;100.00
59443;BME280;45247;47.466;19.004;2022-09-12T06:09:15;99755.38;;;19.40;100.00
59443;BME280;45247;47.466;19.004;2022-09-12T06:11:44;99763.41;;;18.94;100.00
59443;BME280;45247;47.466;19.004;2022-09-12T06:14:14;99764.41;;;18.93;100.00
59443;BME280;45247;47.466;19.004;2022-09-12T06:16:42;99761.38;;;19.51;100.00
59443;BME280;45247;47.466;19.004;2022-09-12T06:19:13;99755.75;;;20.34;100.00
59443;BME280;45247;47.466;19.004;2022-09-12T06:21:42;99762.06;;;20.51;100.00
59443;BME280;45247;47.466;19.004;2022-09-12T06:24:10;99765.91;;;20.48;100.00
59443;BME280;45247;47.466;19.004;2022-09-12T06:26:40;99762.16;;;20.67;100.00
59443;BME280;45247;47.466;19.004;2022-09-12T06:29:09;99764.47;;;19.29;100.00
59443;BME280;45247;47.466;19.004;2022-09-12T06:31:40;99775.69;;;18.87;100.00
59443;BME280;45247;47.466;19.004;2022-09-12T06:34:10;99775.28;;;18.82;100.00
59443;BME280;45247;47.466;19.004;2022-09-12T06:36:40;99776.44;;;18.13;100.00
59443;BME280;45247;47.466;19.004;2022-09-12T06:39:11;99766.06;;;17.91;100.00
59443;BME280;45247;47.466;19.004;2022-09-12T06:41:41;99777.53;;;18.11;100.00
59443;BME280;45247;47.466;19.004;2022-09-12T06:44:12;99776.28;;;18.81;100.00
59443;BME280;45247;47.466;19.004;2022-09-12T06:46:42;99772.69;;;18.53;100.00
59443;BME280;45247;47.466;19.004;2022-09-12T06:49:10;99775.53;;;18.42;100.00
59443;BME280;45247;47.466;19.004;2022-09-12T06:51:39;99780.66;;;17.96;100.00
59443;BME280;45247;47.466;19.004;2022-09-12T06:54:11;99782.16;;;18.28;100.00
59443;BME280;45247;47.466;19.004;2022-09-12T06:56:41;99786.00;;;17.96;100.00
59443;BME280;45247;47.466;19.004;2022-09-12T06:59:09;99778.94;;;18.15;100.00
59443;BME280;45247;47.466;19.004;2022-09-12T07:01:37;99783.44;;;18.24;100.00
59443;BME280;45247;47.466;19.004;2022-09-12T07:04:07;99775.00;;;18.29;100.00
59443;BME280;45247;47.466;19.004;2022-09-12T07:06:36;99779.41;;;18.57;100.00
59443;BME280;45247;47.466;19.004;2022-09-12T07:09:08;99778.09;;;18.34;100.00
59443;BME280;45247;47.466;19.004;2022-09-12T07:11:38;99770.13;;;17.95;100.00
59443;BME280;45247;47.466;19.004;2022-09-12T07:14:10;99778.53;;;18.10;100.00
59443;BME280;45247;47.466;19.004;2022-09-12T07:16:43;99778.63;;;17.40;100.00
59443;BME280;45247;47.466;19.004;2022-09-12T07:19:11;99788.03;;;16.94;100.00
59443;BME280;45247;47.466;19.004;2022-09-12T07:21:39;99773.19;;;16.92;100.00
59443;BME280;45247;47.466;19.004;2022-09-12T07:24:11;99781.66;;;17.16;100.00
59443;BME280;45247;47.466;19.004;2022-09-12T07:26:40;99783.34;;;17.87;100.00
59443;BME280;45247;47.466;19.004;2022-09-12T07:29:14;99786.53;;;18.29;100.00
59443;BME280;45247;47.466;19.004;2022-09-12T07:32:03;99784.75;;;18.76;100.00
59443;BME280;45247;47.466;19.004;2022-09-12T07:34:32;99794.16;;;18.71;100.00
59443;BME280;45247;47.466;19.004;2022-09-12T07:37:01;99791.25;;;18.55;100.00
59443;BME280;45247;47.466;19.004;2022-09-12T07:39:29;99800.03;;;18.18;100.00
59443;BME280;45247;47.466;19.004;2022-09-12T07:41:58;99799.44;;;18.43;100.00
59443;BME280;45247;47.466;19.004;2022-09-12T07:44:28;99796.28;;;18.77;100.00
59443;BME280;45247;47.466;19.004;2022-09-12T07:46:56;99792.44;;;18.89;100.00
59443;BME280;45247;47.466;19.004;2022-09-12T07:49:24;99799.34;;;19.10;100.00
59443;BME280;45247;47.466;19.004;2022-09-12T07:51:52;99796.28;;;19.32;100.00
59443;BME280;45247;47.466;19.004;2022-09-12T07:54:21;99784.69;;;19.41;100.00
59443;BME280;45247;47.466;19.004;2022-09-12T07:56:50;99792.31;;;19.36;100.00
59443;BME280;45247;47.466;19.004;2022-09-12T07:59:18;99792.41;;;19.44;100.00
59443;BME280;45247;47.466;19.004;2022-09-12T08:02:10;99803.88;;;19.37;100.00
59443;BME280;45247;47.466;19.004;2022-09-12T08:04:43;99802.03;;;19.10;100.00
59443;BME280;45247;47.466;19.004;2022-09-12T08:07:11;99797.91;;;19.43;100.00
59443;BME280;45247;47.466;19.004;2022-09-12T08:09:39;99794.53;;;19.23;100.00
59443;BME280;45247;47.466;19.004;2022-09-12T08:12:07;99797.19;;;19.23;100.00
59443;BME280;45247;47.466;19.004;2022-09-12T08:14:35;99789.75;;;19.44;100.00
59443;BME280;45247;47.466;19.004;2022-09-12T08:17:04;99797.81;;;19.62;98.55
59443;BME280;45247;47.466;19.004;2022-09-12T08:19:33;99791.97;;;19.49;100.00
59443;BME280;45247;47.466;19.004;2022-09-12T08:22:01;99794.28;;;19.34;96.30
59443;BME280;45247;47.466;19.004;2022-09-12T08:24:30;99798.63;;;19.45;100.00
59443;BME280;45247;47.466;19.004;2022-09-12T08:26:59;99794.09;;;19.45;95.98
59443;BME280;45247;47.466;19.004;2022-09-12T08:29:27;99793.97;;;19.65;94.78
59443;BME280;45247;47.466;19.004;2022-09-12T08:31:55;99802.59;;;19.59;93.82
59443;BME280;45247;47.466;19.004;2022-09-12T08:34:23;99799.84;;;19.50;96.24
59443;BME280;45247;47.466;19.004;2022-09-12T08:36:54;99802.59;;;19.59;99.66
59443;BME280;45247;47.466;19.004;2022-09-12T08:39:22;99801.50;;;19.79;98.61
59443;BME280;45247;47.466;19.004;2022-09-12T08:41:57;99822.28;;;19.67;97.02
59443;BME280;45247;47.466;19.004;2022-09-12T08:44:44;99806.38;;;19.38;99.45
59443;BME280;45247;47.466;19.004;2022-09-12T08:47:22;99797.69;;;19.36;100.00
59443;BME280;45247;47.466;19.004;2022-09-12T08:50:01;99800.28;;;19.46;100.00
59443;BME280;45247;47.466;19.004;2022-09-12T08:52:35;99801.41;;;19.71;100.00
59443;BME280;45247;47.466;19.004;2022-09-12T08:55:18;99790.00;;;19.87;95.93
59443;BME280;45247;47.466;19.004;2022-09-12T08:57:50;99784.50;;;20.06;98.05
59443;BME280;45247;47.466;19.004;2022-09-12T09:00:19;99789.75;;;20.16;100.00
59443;BME280;45247;47.466;19.004;2022-09-12T09:03:19;99795.31;;;20.40;99.36
59443;BME280;45247;47.466;19.004;2022-09-12T09:05:59;99786.41;;;20.58;95.57
59443;BME280;45247;47.466;19.004;2022-09-12T09:08:46;99787.88;;;20.52;94.71
59443;BME280;45247;47.466;19.004;2022-09-12T09:11:29;99774.25;;;20.01;87.91
59443;BME280;45247;47.466;19.004;2022-09-12T09:14:09;99775.59;;;20.23;91.26
59443;BME280;45247;47.466;19.004;2022-09-12T09:16:59;99770.97;;;20.60;93.51
59443;BME280;45247;47.466;19.004;2022-09-12T09:19:30;99777.50;;;20.83;93.36
59443;BME280;45247;47.466;19.004;2022-09-12T09:22:03;99767.31;;;20.61;89.03
59443;BME280;45247;47.466;19.004;2022-09-12T09:24:39;99768.81;;;20.63;90.78
59443;BME280;45247;47.466;19.004;2022-09-12T09:27:12;99809.56;;;20.67;83.04
59443;BME280;45247;47.466;19.004;2022-09-12T09:30:07;99793.88;;;20.28;83.01
59443;BME280;45247;47.466;19.004;2022-09-12T09:32:40;99785.94;;;19.83;88.73
59443;BME280;45247;47.466;19.004;2022-09-12T09:35:15;99785.56;;;19.95;91.04
59443;BME280;45247;47.466;19.004;2022-09-12T09:37:58;99788.31;;;19.86;91.75
59443;BME280;45247;47.466;19.004;2022-09-12T09:40:36;99789.22;;;20.30;91.01
59443;BME280;45247;47.466;19.004;2022-09-12T09:43:11;99780.91;;;20.67;91.45
59443;BME280;45247;47.466;19.004;2022-09-12T09:45:44;99778.75;;;20.71;93.26
59443;BME280;45247;47.466;19.004;2022-09-12T09:48:17;99790.53;;;20.78;90.99
59443;BME280;45247;47.466;19.004;2022-09-12T09:50:47;99790.19;;;20.73;93.16
59443;BME280;45247;47.466;19.004;2022-09-12T09:53:25;99787.06;;;20.16;98.12
59443;BME280;45247;47.466;19.004;2022-09-12T09:55:55;99796.44;;;20.38;100.00
59443;BME280;45247;47.466;19.004;2022-09-12T09:58:32;99794.94;;;19.91;100.00
59443;BME280;45247;47.466;19.004;2022-09-12T10:01:03;99785.28;;;19.63;100.00
59443;BME280;45247;47.466;19.004;2022-09-12T10:03:33;99782.41;;;20.18;100.00
59443;BME280;45247;47.466;19.004;2022-09-12T10:06:06;99775.41;;;20.43;100.00
59443;BME280;45247;47.466;19.004;2022-09-12T10:08:35;99773.50;;;20.35;100.00
59443;BME280;45247;47.466;19.004;2022-09-12T10:11:19;99777.47;;;20.05;100.00
59443;BME280;45247;47.466;19.004;2022-09-12T10:13:53;99775.88;;;19.76;98.11
59443;BME280;45247;47.466;19.004;2022-09-12T10:16:25;99788.94;;;19.34;99.15
59443;BME280;45247;47.466;19.004;2022-09-12T10:18:55;99787.38;;;19.14;100.00
59443;BME280;45247;47.466;19.004;2022-09-12T10:21:30;99787.91;;;19.17;100.00
59443;BME280;45247;47.466;19.004;2022-09-12T10:24:12;99806.09;;;19.14;100.00
59443;BME280;45247;47.466;19.004;2022-09-12T10:26:48;99791.88;;;19.41;100.00
59443;BME280;45247;47.466;19.004;2022-09-12T10:29:25;99803.19;;;19.52;100.00
59443;BME280;45247;47.466;19.004;2022-09-12T10:31:55;99789.34;;;19.67;99.86
59443;BME280;45247;47.466;19.004;2022-09-12T10:34:27;99787.41;;;19.95;99.18
59443;BME280;45247;47.466;19.004;2022-09-12T10:37:02;99797.28;;;19.94;98.38
59443;BME280;45247;47.466;19.004;2022-09-12T10:39:31;99792.47;;;19.98;99.69
59443;BME280;45247;47.466;19.004;2022-09-12T10:42:04;99782.53;;;20.34;99.73
59443;BME280;45247;47.466;19.004;2022-09-12T10:44:33;99783.38;;;20.87;97.99
59443;BME280;45247;47.466;19.004;2022-09-12T10:47:19;99773.41;;;21.56;95.70
59443;BME280;45247;47.466;19.004;2022-09-12T10:49:48;99762.38;;;22.08;87.82
59443;BME280;45247;47.466;19.004;2022-09-12T10:52:20;99757.34;;;22.13;85.65
59443;BME280;45247;47.466;19.004;2022-09-12T10:54:49;99750.97;;;21.97;86.94
59443;BME280;45247;47.466;19.004;2022-09-12T10:57:29;99759.78;;;21.33;88.00
59443;BME280;45247;47.466;19.004;2022-09-12T11:00:07;99752.66;;;21.23;88.96
59443;BME280;45247;47.466;19.004;2022-09-12T11:02:58;99763.34;;;21.07;88.94
59443;BME280;45247;47.466;19.004;2022-09-12T11:05:44;99766.81;;;20.91;89.51
59443;BME280;45247;47.466;19.004;2022-09-12T11:08:22;99770.75;;;20.27;88.28
59443;BME280;45247;47.466;19.004;2022-09-12T11:10:57;99773.88;;;19.96;88.05
59443;BME280;45247;47.466;19.004;2022-09-12T11:13:46;99778.31;;;20.06;88.99
59443;BME280;45247;47.466;19.004;2022-09-12T11:16:26;99777.44;;;20.23;87.35
59443;BME280;45247;47.466;19.004;2022-09-12T11:19:12;99773.56;;;20.43;84.87
59443;BME280;45247;47.466;19.004;2022-09-12T11:21:53;99765.81;;;20.40;86.91
59443;BME280;45247;47.466;19.004;2022-09-12T11:25:02;99765.88;;;20.22;89.82
59443;BME280;45247;47.466;19.004;2022-09-12T11:27:49;99770.97;;;19.72;93.72
59443;BME280;45247;47.466;19.004;2022-09-12T11:30:23;99773.50;;;19.73;91.92
59443;BME280;45247;47.466;19.004;2022-09-12T11:33:06;99773.72;;;19.80;93.86
59443;BME280;45247;47.466;19.004;2022-09-12T11:35:42;99769.28;;;19.71;93.72
59443;BME280;45247;47.466;19.004;2022-09-12T11:38:49;99764.53;;;19.65;97.71
59443;BME280;45247;47.466;19.004;2022-09-12T11:41:22;99765.69;;;19.80;100.00
59443;BME280;45247;47.466;19.004;2022-09-12T11:43:56;99771.34;;;19.77;100.00
59443;BME280;45247;47.466;19.004;2022-09-12T11:46:33;99774.19;;;19.93;100.00
59443;BME280;45247;47.466;19.004;2022-09-12T11:49:08;99776.84;;;20.37;100.00
59443;BME280;45247;47.466;19.004;2022-09-12T11:51:48;99770.75;;;20.79;100.00
59443;BME280;45247;47.466;19.004;2022-09-12T11:54:22;99761.78;;;20.96;100.00
59443;BME280;45247;47.466;19.004;2022-09-12T11:56:59;99748.56;;;21.37;97.23
59443;BME280;45247;47.466;19.004;2022-09-12T11:59:33;99757.00;;;21.16;93.97
59443;BME280;45247;47.466;19.004;2022-09-12T12:02:10;99756.56;;;20.53;100.00
59443;BME280;45247;47.466;19.004;2022-09-12T12:04:50;99744.34;;;20.32;100.00
59443;BME280;45247;47.466;19.004;2022-09-12T12:07:22;99759.03;;;19.84;100.00
59443;BME280;45247;47.466;19.004;2022-09-12T12:09:51;99770.72;;;19.65;100.00
59443;BME280;45247;47.466;19.004;2022-09-12T12:12:24;99741.97;;;19.49;100.00
59443;BME280;45247;47.466;19.004;2022-09-12T12:14:55;99754.63;;;20.19;100.00
59443;BME280;45247;47.466;19.004;2022-09-12T12:17:26;99747.25;;;20.21;99.21
59443;BME280;45247;47.466;19.004;2022-09-12T12:19:57;99744.91;;;20.18;99.97
59443;BME280;45247;47.466;19.004;2022-09-12T12:22:32;99739.56;;;20.18;100.00
59443;BME280;45247;47.466;19.004;2022-09-12T12:25:07;99731.66;;;20.42;96.33
59443;BME280;45247;47.466;19.004;2022-09-12T12:27:56;99732.66;;;20.41;98.19
59443;BME280;45247;47.466;19.004;2022-09-12T12:30:58;99731.66;;;21.11;91.30
59443;BME280;45247;47.466;19.004;2022-09-12T12:34:03;99726.56;;;21.58;86.43
59443;BME280;45247;47.466;19.004;2022-09-12T12:36:39;99728.63;;;21.89;86.41
59443;BME280;45247;47.466;19.004;2022-09-12T12:49:08;99722.72;;;22.34;83.46
59443;BME280;45247;47.466;19.004;2022-09-12T12:54:51;99736.53;;;22.15;72.46
59443;BME280;45247;47.466;19.004;2022-09-12T12:57:31;99732.31;;;21.63;75.45
59443;BME280;45247;47.466;19.004;2022-09-12T13:00:25;99719.59;;;21.15;76.78
59443;BME280;45247;47.466;19.004;2022-09-12T13:02:57;99727.16;;;21.11;79.96
59443;BME280;45247;47.466;19.004;2022-09-12T13:05:30;99732.69;;;21.18;77.62
59443;BME280;45247;47.466;19.004;2022-09-12T13:08:08;99726.50;;;21.17;78.58
59443;BME280;45247;47.466;19.004;2022-09-12T13:10:37;99725.97;;;21.14;75.76
59443;BME280;45247;47.466;19.004;2022-09-12T13:13:06;99710.47;;;20.91;76.93
59443;BME280;45247;47.466;19.004;2022-09-12T13:15:49;99722.19;;;20.82;81.17
59443;BME280;45247;47.466;19.004;2022-09-12T13:18:24;99724.16;;;20.80;80.98
59443;BME280;45247;47.466;19.004;2022-09-12T13:21:01;99719.78;;;20.71;82.57
59443;BME280;45247;47.466;19.004;2022-09-12T13:23:33;99713.38;;;20.64;82.64
59443;BME280;45247;47.466;19.004;2022-09-12T13:26:01;99717.41;;;20.68;82.80
59443;BME280;45247;47.466;19.004;2022-09-12T13:28:30;99714.69;;;21.02;81.10
59443;BME280;45247;47.466;19.004;2022-09-12T13:31:02;99708.28;;;21.45;79.72